sensor_id;sensor_type;location;lat;lon;timestamp;pressure;altitude;pressure_sealevel;temperature;humidity
56514;BME280;62152;52.078;8.414;2023-02-01T00:03:25;66444.38;;;-146.75;100.00
56514;BME280;62152;52.078;8.414;2023-02-01T00:07:27;66444.38;;;-146.75;100.00
56514;BME280;62152;52.078;8.414;2023-02-01T00:11:28;66444.38;;;-146.75;100.00
56514;BME280;62152;52.078;8.414;2023-02-01T00:15:28;66444.38;;;-146.75;100.00
56514;BME280;62152;52.078;8.414;2023-02-01T00:19:29;66444.38;;;-146.75;100.00
56514;BME280;62152;52.078;8.414;2023-02-01T00:23:33;66444.38;;;-146.75;100.00
56514;BME280;62152;52.078;8.414;2023-02-01T00:27:34;66444.38;;;-146.75;100.00
56514;BME280;62152;52.078;8.414;2023-02-01T00:31:35;66444.38;;;-146.75;100.00
56514;BME280;62152;52.078;8.414;2023-02-01T00:35:35;66444.38;;;-146.75;100.00
56514;BME280;62152;52.078;8.414;2023-02-01T00:39:38;66444.38;;;-146.75;100.00
56514;BME280;62152;52.078;8.414;2023-02-01T00:43:39;66444.38;;;-146.75;100.00
56514;BME280;62152;52.078;8.414;2023-02-01T00:47:40;66444.38;;;-146.75;100.00
56514;BME280;62152;52.078;8.414;2023-02-01T00:51:41;66444.38;;;-146.75;100.00
56514;BME280;62152;52.078;8.414;2023-02-01T00:55:45;66444.38;;;-146.75;100.00
56514;BME280;62152;52.078;8.414;2023-02-01T00:59:46;66444.38;;;-146.75;100.00
56514;BME280;62152;52.078;8.414;2023-02-01T01:03:49;66444.38;;;-146.75;100.00
56514;BME280;62152;52.078;8.414;2023-02-01T01:07:50;66444.38;;;-146.75;100.00
56514;BME280;62152;52.078;8.414;2023-02-01T01:11:52;66444.38;;;-146.75;100.00
56514;BME280;62152;52.078;8.414;2023-02-01T01:15:52;66444.38;;;-146.75;100.00
56514;BME280;62152;52.078;8.414;2023-02-01T01:19:53;66444.38;;;-146.75;100.00
56514;BME280;62152;52.078;8.414;2023-02-01T01:23:54;66444.38;;;-146.75;100.00
56514;BME280;62152;52.078;8.414;2023-02-01T01:27:56;66444.38;;;-146.75;100.00
56514;BME280;62152;52.078;8.414;2023-02-01T01:31:57;66444.38;;;-146.75;100.00
56514;BME280;62152;52.078;8.414;2023-02-01T01:35:59;66444.38;;;-146.75;100.00
56514;BME280;62152;52.078;8.414;2023-02-01T01:39:59;66444.38;;;-146.75;100.00
56514;BME280;62152;52.078;8.414;2023-02-01T01:44:04;66444.38;;;-146.75;100.00
56514;BME280;62152;52.078;8.414;2023-02-01T01:48:08;66444.38;;;-146.75;100.00
56514;BME280;62152;52.078;8.414;2023-02-01T01:52:13;66444.38;;;-146.75;100.00
56514;BME280;62152;52.078;8.414;2023-02-01T01:56:15;66444.38;;;-146.75;100.00
56514;BME280;62152;52.078;8.414;2023-02-01T02:00:20;66444.38;;;-146.75;100.00
56514;BME280;62152;52.078;8.414;2023-02-01T02:04:23;66444.38;;;-146.75;100.00
56514;BME280;62152;52.078;8.414;2023-02-01T02:08:26;66444.38;;;-146.75;100.00
56514;BME280;62152;52.078;8.414;2023-02-01T02:12:28;66444.38;;;-146.75;100.00
56514;BME280;62152;52.078;8.414;2023-02-01T02:16:48;66444.38;;;-146.75;100.00
56514;BME280;62152;52.078;8.414;2023-02-01T02:21:11;66444.38;;;-146.75;100.00
56514;BME280;62152;52.078;8.414;2023-02-01T02:25:49;66444.38;;;-146.75;100.00
56514;BME280;62152;52.078;8.414;2023-02-01T02:30:40;66444.38;;;-146.75;100.00
56514;BME280;62152;52.078;8.414;2023-02-01T02:34:50;66444.38;;;-146.75;100.00
56514;BME280;62152;52.078;8.414;2023-02-01T02:39:02;66444.38;;;-146.75;100.00
56514;BME280;62152;52.078;8.414;2023-02-01T02:43:12;66444.38;;;-146.75;100.00
56514;BME280;62152;52.078;8.414;2023-02-01T02:47:24;66444.38;;;-146.75;100.00
56514;BME280;62152;52.078;8.414;2023-02-01T02:51:32;66444.38;;;-146.75;100.00
56514;BME280;62152;52.078;8.414;2023-02-01T02:55:38;66444.38;;;-146.75;100.00
56514;BME280;62152;52.078;8.414;2023-02-01T02:59:43;66444.38;;;-146.75;100.00
56514;BME280;62152;52.078;8.414;2023-02-01T03:03:45;66444.38;;;-146.75;100.00
56514;BME280;62152;52.078;8.414;2023-02-01T03:08:01;66444.38;;;-146.75;100.00
56514;BME280;62152;52.078;8.414;2023-02-01T03:12:08;66444.38;;;-146.75;100.00
56514;BME280;62152;52.078;8.414;2023-02-01T03:16:18;66444.38;;;-146.75;100.00
56514;BME280;62152;52.078;8.414;2023-02-01T03:20:23;66444.38;;;-146.75;100.00
56514;BME280;62152;52.078;8.414;2023-02-01T03:24:33;66444.38;;;-146.75;100.00
56514;BME280;62152;52.078;8.414;2023-02-01T03:28:39;66444.38;;;-146.75;100.00
56514;BME280;62152;52.078;8.414;2023-02-01T03:32:47;66444.38;;;-146.75;100.00
56514;BME280;62152;52.078;8.414;2023-02-01T03:36:54;66444.38;;;-146.75;100.00
56514;BME280;62152;52.078;8.414;2023-02-01T03:41:08;66444.38;;;-146.75;100.00
56514;BME280;62152;52.078;8.414;2023-02-01T03:45:13;66444.38;;;-146.75;100.00
56514;BME280;62152;52.078;8.414;2023-02-01T03:49:28;66444.38;;;-146.75;100.00
56514;BME280;62152;52.078;8.414;2023-02-01T03:53:31;66444.38;;;-146.75;100.00
56514;BME280;62152;52.078;8.414;2023-02-01T03:57:39;66444.38;;;-146.75;100.00
56514;BME280;62152;52.078;8.414;2023-02-01T04:01:42;66444.38;;;-146.75;100.00
56514;BME280;62152;52.078;8.414;2023-02-01T04:05:43;66444.38;;;-146.75;100.00
56514;BME280;62152;52.078;8.414;2023-02-01T04:09:44;66444.38;;;-146.75;100.00
56514;BME280;62152;52.078;8.414;2023-02-01T04:13:46;66444.38;;;-146.75;100.00
56514;BME280;62152;52.078;8.414;2023-02-01T04:17:47;66444.38;;;-146.75;100.00
56514;BME280;62152;52.078;8.414;2023-02-01T04:21:48;66444.38;;;-146.75;100.00
56514;BME280;62152;52.078;8.414;2023-02-01T04:25:48;66444.38;;;-146.75;100.00
56514;BME280;62152;52.078;8.414;2023-02-01T04:29:51;66444.38;;;-146.75;100.00
56514;BME280;62152;52.078;8.414;2023-02-01T04:33:51;66444.38;;;-146.75;100.00
56514;BME280;62152;52.078;8.414;2023-02-01T04:37:52;66444.38;;;-146.75;100.00
56514;BME280;62152;52.078;8.414;2023-02-01T04:41:53;66444.38;;;-146.75;100.00
56514;BME280;62152;52.078;8.414;2023-02-01T04:45:55;66444.38;;;-146.75;100.00
56514;BME280;62152;52.078;8.414;2023-02-01T04:49:56;66444.38;;;-146.75;100.00
56514;BME280;62152;52.078;8.414;2023-02-01T04:53:56;66444.38;;;-146.75;100.00
56514;BME280;62152;52.078;8.414;2023-02-01T04:57:57;66444.38;;;-146.75;100.00
56514;BME280;62152;52.078;8.414;2023-02-01T05:01:59;66444.38;;;-146.75;100.00
56514;BME280;62152;52.078;8.414;2023-02-01T05:06:00;66444.38;;;-146.75;100.00
56514;BME280;62152;52.078;8.414;2023-02-01T05:10:01;66444.38;;;-146.75;100.00
56514;BME280;62152;52.078;8.414;2023-02-01T05:14:01;66444.38;;;-146.75;100.00
56514;BME280;62152;52.078;8.414;2023-02-01T05:18:04;66444.38;;;-146.75;100.00
56514;BME280;62152;52.078;8.414;2023-02-01T05:22:59;99973.81;;;16.19;52.74
56514;BME280;62152;52.078;8.414;2023-02-01T05:27:00;99963.75;;;16.23;52.90
56514;BME280;62152;52.078;8.414;2023-02-01T05:31:00;99964.47;;;16.20;53.07
56514;BME280;62152;52.078;8.414;2023-02-01T05:35:01;99960.44;;;16.13;54.52
56514;BME280;62152;52.078;8.414;2023-02-01T05:39:04;99961.13;;;16.10;54.30
56514;BME280;62152;52.078;8.414;2023-02-01T05:43:04;99963.06;;;16.10;54.22
56514;BME280;62152;52.078;8.414;2023-02-01T05:47:05;99944.28;;;16.08;54.15
56514;BME280;62152;52.078;8.414;2023-02-01T05:51:08;99947.81;;;16.09;54.64
56514;BME280;62152;52.078;8.414;2023-02-01T05:55:11;99947.03;;;16.08;54.89
56514;BME280;62152;52.078;8.414;2023-02-01T05:59:12;99941.56;;;16.08;54.59
56514;BME280;62152;52.078;8.414;2023-02-01T06:03:13;99941.91;;;16.07;54.67
56514;BME280;62152;52.078;8.414;2023-02-01T06:07:14;99948.59;;;16.09;55.16
56514;BME280;62152;52.078;8.414;2023-02-01T06:11:16;99941.13;;;16.06;55.24
56514;BME280;62152;52.078;8.414;2023-02-01T06:15:17;99952.50;;;16.08;54.56
56514;BME280;62152;52.078;8.414;2023-02-01T06:19:18;99950.13;;;16.07;54.67
56514;BME280;62152;52.078;8.414;2023-02-01T06:23:18;99935.28;;;16.08;55.06
56514;BME280;62152;52.078;8.414;2023-02-01T06:27:21;99949.34;;;16.06;54.99
56514;BME280;62152;52.078;8.414;2023-02-01T06:31:21;99949.34;;;16.06;55.43
56514;BME280;62152;52.078;8.414;2023-02-01T06:35:22;99947.03;;;16.08;55.26
56514;BME280;62152;52.078;8.414;2023-02-01T06:39:23;99979.06;;;16.08;55.08
56514;BME280;62152;52.078;8.414;2023-02-01T06:43:27;99971.22;;;16.06;55.03
56514;BME280;62152;52.078;8.414;2023-02-01T06:47:27;99980.56;;;16.05;55.54
56514;BME280;62152;52.078;8.414;2023-02-01T06:51:28;99987.63;;;16.06;55.53
56514;BME280;62152;52.078;8.414;2023-02-01T06:55:29;99989.56;;;16.06;54.99
56514;BME280;62152;52.078;8.414;2023-02-01T06:59:31;99978.97;;;16.04;55.37
56514;BME280;62152;52.078;8.414;2023-02-01T07:03:32;99994.22;;;16.05;55.42
56514;BME280;62152;52.078;8.414;2023-02-01T07:07:33;99992.66;;;16.04;55.09
56514;BME280;62152;52.078;8.414;2023-02-01T07:11:34;99996.97;;;16.05;55.39
56514;BME280;62152;52.078;8.414;2023-02-01T07:15:36;99993.44;;;16.05;55.58
56514;BME280;62152;52.078;8.414;2023-02-01T07:19:37;99995.03;;;16.06;55.36
56514;BME280;62152;52.078;8.414;2023-02-01T07:23:38;100004.84;;;16.07;55.68
56514;BME280;62152;52.078;8.414;2023-02-01T07:27:39;100017.72;;;16.06;55.36
56514;BME280;62152;52.078;8.414;2023-02-01T07:31:41;100025.16;;;16.06;55.36
56514;BME280;62152;52.078;8.414;2023-02-01T07:35:42;100020.78;;;16.05;55.29
56514;BME280;62152;52.078;8.414;2023-02-01T07:39:43;100024.31;;;16.05;55.59
56514;BME280;62152;52.078;8.414;2023-02-01T07:43:44;100027.88;;;16.06;55.49
56514;BME280;62152;52.078;8.414;2023-02-01T07:47:46;100022.41;;;16.06;55.36
56514;BME280;62152;52.078;8.414;2023-02-01T07:51:47;100037.66;;;16.07;55.59
56514;BME280;62152;52.078;8.414;2023-02-01T07:55:48;100025.94;;;16.06;55.48
56514;BME280;62152;52.078;8.414;2023-02-01T07:59:48;100033.78;;;16.08;55.05
56514;BME280;62152;52.078;8.414;2023-02-01T08:03:52;100038.09;;;16.09;55.44
56514;BME280;62152;52.078;8.414;2023-02-01T08:07:54;100027.16;;;16.09;55.17
56514;BME280;62152;52.078;8.414;2023-02-01T08:11:55;100040.84;;;16.09;55.27
56514;BME280;62152;52.078;8.414;2023-02-01T08:15:58;100036.16;;;16.09;55.19
56514;BME280;62152;52.078;8.414;2023-02-01T08:20:01;100048.69;;;16.10;55.50
56514;BME280;62152;52.078;8.414;2023-02-01T08:24:05;100056.09;;;16.10;55.45
56514;BME280;62152;52.078;8.414;2023-02-01T08:28:09;100053.72;;;16.08;55.28
56514;BME280;62152;52.078;8.414;2023-02-01T08:32:10;100039.69;;;16.10;55.47
56514;BME280;62152;52.078;8.414;2023-02-01T08:36:12;100054.94;;;16.11;55.50
56514;BME280;62152;52.078;8.414;2023-02-01T08:40:13;100049.84;;;16.09;55.46
56514;BME280;62152;52.078;8.414;2023-02-01T08:44:14;100044.78;;;16.11;55.34
56514;BME280;62152;52.078;8.414;2023-02-01T08:48:15;100042.41;;;16.10;55.35
56514;BME280;62152;52.078;8.414;2023-02-01T08:52:17;100057.69;;;16.11;55.57
56514;BME280;62152;52.078;8.414;2023-02-01T08:56:18;100069.41;;;16.11;55.74
56514;BME280;62152;52.078;8.414;2023-02-01T09:00:20;100056.88;;;16.10;55.16
56514;BME280;62152;52.078;8.414;2023-02-01T09:04:20;100057.31;;;16.12;55.50
56514;BME280;62152;52.078;8.414;2023-02-01T09:08:22;100053.44;;;16.13;55.00
56514;BME280;62152;52.078;8.414;2023-02-01T09:12:23;100047.97;;;16.13;55.67
56514;BME280;62152;52.078;8.414;2023-02-01T09:16:24;100036.59;;;16.11;55.59
56514;BME280;62152;52.078;8.414;2023-02-01T09:20:25;100039.31;;;16.11;55.66
56514;BME280;62152;52.078;8.414;2023-02-01T09:24:27;100048.31;;;16.12;55.60
56514;BME280;62152;52.078;8.414;2023-02-01T09:28:28;100044.00;;;16.11;55.55
56514;BME280;62152;52.078;8.414;2023-02-01T09:32:29;100042.41;;;16.10;55.50
56514;BME280;62152;52.078;8.414;2023-02-01T09:36:31;100027.59;;;16.11;55.24
56514;BME280;62152;52.078;8.414;2023-02-01T09:40:35;100029.16;;;16.12;55.27
56514;BME280;62152;52.078;8.414;2023-02-01T09:44:58;100022.09;;;16.11;55.52
56514;BME280;62152;52.078;8.414;2023-02-01T09:49:16;100037.38;;;16.12;55.40
56514;BME280;62152;52.078;8.414;2023-02-01T09:53:25;100028.03;;;16.13;55.27
56514;BME280;62152;52.078;8.414;2023-02-01T09:57:41;100023.34;;;16.13;55.40
56514;BME280;62152;52.078;8.414;2023-02-01T10:01:49;100023.78;;;16.16;55.44
56514;BME280;62152;52.078;8.414;2023-02-01T10:06:19;100019.09;;;16.16;55.05
56514;BME280;62152;52.078;8.414;2023-02-01T10:10:36;100003.06;;;16.14;55.32
56514;BME280;62152;52.078;8.414;2023-02-01T10:14:55;100004.63;;;16.16;55.06
56514;BME280;62152;52.078;8.414;2023-02-01T10:19:17;100005.78;;;16.14;55.68
56514;BME280;62152;52.078;8.414;2023-02-01T10:23:42;100000.31;;;16.14;55.30
56514;BME280;62152;52.078;8.414;2023-02-01T10:28:00;100017.16;;;16.17;55.47
56514;BME280;62152;52.078;8.414;2023-02-01T10:32:14;99998.00;;;16.17;55.35
56514;BME280;62152;52.078;8.414;2023-02-01T10:36:22;100005.78;;;16.14;55.25
56514;BME280;62152;52.078;8.414;2023-02-01T10:40:29;99997.22;;;16.16;55.06
56514;BME280;62152;52.078;8.414;2023-02-01T10:44:33;99994.84;;;16.14;55.18
56514;BME280;62152;52.078;8.414;2023-02-01T10:48:43;99995.28;;;16.17;55.21
56514;BME280;62152;52.078;8.414;2023-02-01T10:52:51;100012.06;;;16.15;55.24
56514;BME280;62152;52.078;8.414;2023-02-01T10:56:57;100010.47;;;16.14;55.23
56514;BME280;62152;52.078;8.414;2023-02-01T11:01:00;100008.06;;;16.12;55.44
56514;BME280;62152;52.078;8.414;2023-02-01T11:05:08;99996.00;;;16.13;55.33
56514;BME280;62152;52.078;8.414;2023-02-01T11:09:18;99977.97;;;16.12;55.20
56514;BME280;62152;52.078;8.414;2023-02-01T11:13:29;99962.00;;;16.14;55.26
56514;BME280;62152;52.078;8.414;2023-02-01T11:17:34;99954.94;;;16.13;55.04
56514;BME280;62152;52.078;8.414;2023-02-01T11:21:37;99954.16;;;16.13;55.47
56514;BME280;62152;52.078;8.414;2023-02-01T11:25:38;99947.09;;;16.12;55.71
56514;BME280;62152;52.078;8.414;2023-02-01T11:29:43;99944.00;;;16.13;55.56
56514;BME280;62152;52.078;8.414;2023-02-01T11:33:51;99926.81;;;16.13;55.31
56514;BME280;62152;52.078;8.414;2023-02-01T11:37:56;99906.41;;;16.10;55.72
56514;BME280;62152;52.078;8.414;2023-02-01T11:42:01;99920.50;;;16.12;55.18
56514;BME280;62152;52.078;8.414;2023-02-01T11:46:18;99905.25;;;16.11;55.62
56514;BME280;62152;52.078;8.414;2023-02-01T11:50:30;99899.34;;;16.09;55.66
56514;BME280;62152;52.078;8.414;2023-02-01T11:55:00;99891.94;;;16.10;55.42
56514;BME280;62152;52.078;8.414;2023-02-01T11:59:24;99892.31;;;16.08;55.28
56514;BME280;62152;52.078;8.414;2023-02-01T12:04:01;99916.94;;;16.08;55.60
56514;BME280;62152;52.078;8.414;2023-02-01T12:08:27;99911.44;;;16.08;55.39
56514;BME280;62152;52.078;8.414;2023-02-01T12:12:49;99898.56;;;16.09;55.08
56514;BME280;62152;52.078;8.414;2023-02-01T12:17:18;99892.31;;;16.08;55.36
56514;BME280;62152;52.078;8.414;2023-02-01T12:22:00;99884.88;;;16.09;55.40
56514;BME280;62152;52.078;8.414;2023-02-01T12:26:44;99863.38;;;16.07;55.27
56514;BME280;62152;52.078;8.414;2023-02-01T12:35:58;99870.41;;;16.08;55.44
56514;BME280;62152;52.078;8.414;2023-02-01T12:40:25;99862.63;;;16.10;55.00
56514;BME280;62152;52.078;8.414;2023-02-01T12:44:43;99863.78;;;16.09;55.33
56514;BME280;62152;52.078;8.414;2023-02-01T12:48:56;99863.78;;;16.09;55.53
56514;BME280;62152;52.078;8.414;2023-02-01T12:53:12;99854.00;;;16.08;55.59
56514;BME280;62152;52.078;8.414;2023-02-01T12:57:24;99837.97;;;16.07;55.24
56514;BME280;62152;52.078;8.414;2023-02-01T13:01:34;99833.63;;;16.06;55.50
56514;BME280;62152;52.078;8.414;2023-02-01T13:05:50;99823.91;;;16.08;55.52
56514;BME280;62152;52.078;8.414;2023-02-01T13:10:01;99822.75;;;16.09;55.53
56514;BME280;62152;52.078;8.414;2023-02-01T13:14:15;99820.81;;;16.10;55.55
56514;BME280;62152;52.078;8.414;2023-02-01T13:18:34;99804.75;;;16.08;55.54
56514;BME280;62152;52.078;8.414;2023-02-01T13:22:41;99810.59;;;16.07;55.70
56514;BME280;62152;52.078;8.414;2023-02-01T13:26:46;99821.53;;;16.07;55.43
56514;BME280;62152;52.078;8.414;2023-02-01T13:31:05;99814.91;;;16.08;55.03
56514;BME280;62152;52.078;8.414;2023-02-01T13:36:01;99823.91;;;16.08;55.64
56514;BME280;62152;52.078;8.414;2023-02-01T13:40:35;99812.59;;;16.10;55.34
56514;BME280;62152;52.078;8.414;2023-02-01T13:44:45;99804.75;;;16.08;54.94
56514;BME280;62152;52.078;8.414;2023-02-01T13:48:51;99807.06;;;16.06;55.29
56514;BME280;62152;52.078;8.414;2023-02-01T13:52:57;99814.53;;;16.09;55.43
56514;BME280;62152;52.078;8.414;2023-02-01T13:57:04;99817.28;;;16.09;55.13
56514;BME280;62152;52.078;8.414;2023-02-01T14:01:35;99823.53;;;16.10;55.42
56514;BME280;62152;52.078;8.414;2023-02-01T14:10:46;99858.69;;;16.08;55.48
56514;BME280;62152;52.078;8.414;2023-02-01T14:14:51;99878.19;;;16.06;55.55
56514;BME280;62152;52.078;8.414;2023-02-01T14:19:31;99860.19;;;16.05;55.56
56514;BME280;62152;52.078;8.414;2023-02-01T14:23:40;99875.81;;;16.05;55.31
56514;BME280;62152;52.078;8.414;2023-02-01T14:27:44;99878.53;;;16.05;55.67
56514;BME280;62152;52.078;8.414;2023-02-01T14:31:54;99880.47;;;16.04;55.78
56514;BME280;62152;52.078;8.414;2023-02-01T14:36:07;99875.00;;;16.04;55.64
56514;BME280;62152;52.078;8.414;2023-02-01T14:40:19;99857.44;;;16.05;55.49
56514;BME280;62152;52.078;8.414;2023-02-01T14:44:29;99871.94;;;16.06;55.31
56514;BME280;62152;52.078;8.414;2023-02-01T14:48:44;99865.66;;;16.05;55.66
56514;BME280;62152;52.078;8.414;2023-02-01T14:52:51;99873.84;;;16.05;55.24
56514;BME280;62152;52.078;8.414;2023-02-01T14:57:16;99879.31;;;16.05;55.42
56514;BME280;62152;52.078;8.414;2023-02-01T15:01:22;99889.94;;;16.07;55.60
56514;BME280;62152;52.078;8.414;2023-02-01T15:05:30;99898.47;;;16.05;55.46
56514;BME280;62152;52.078;8.414;2023-02-01T15:09:36;99910.25;;;16.06;55.39
56514;BME280;62152;52.078;8.414;2023-02-01T15:13:39;99919.25;;;16.06;55.08
56514;BME280;62152;52.078;8.414;2023-02-01T15:17:40;99917.63;;;16.05;55.46
56514;BME280;62152;52.078;8.414;2023-02-01T15:21:45;99900.09;;;16.06;55.37
56514;BME280;62152;52.078;8.414;2023-02-01T15:25:47;99904.78;;;16.06;55.57
56514;BME280;62152;52.078;8.414;2023-02-01T15:29:48;99914.91;;;16.05;55.56
56514;BME280;62152;52.078;8.414;2023-02-01T15:33:56;99914.09;;;16.05;55.50
56514;BME280;62152;52.078;8.414;2023-02-01T15:38:20;99915.25;;;16.04;55.58
56514;BME280;62152;52.078;8.414;2023-02-01T15:42:29;99925.84;;;16.05;55.51
56514;BME280;62152;52.078;8.414;2023-02-01T15:46:33;99923.09;;;16.05;55.56
56514;BME280;62152;52.078;8.414;2023-02-01T15:50:40;99919.94;;;16.03;55.80
56514;BME280;62152;52.078;8.414;2023-02-01T15:54:47;99927.34;;;16.03;55.43
56514;BME280;62152;52.078;8.414;2023-02-01T15:58:54;99936.78;;;16.05;55.22
56514;BME280;62152;52.078;8.414;2023-02-01T16:02:59;99952.66;;;16.54;55.06
56514;BME280;62152;52.078;8.414;2023-02-01T16:07:03;99953.38;;;16.32;55.26
56514;BME280;62152;52.078;8.414;2023-02-01T16:11:27;99954.22;;;16.17;56.10
56514;BME280;62152;52.078;8.414;2023-02-01T16:15:29;99972.50;;;16.12;55.74
56514;BME280;62152;52.078;8.414;2023-02-01T16:19:29;99959.53;;;16.09;55.74
56514;BME280;62152;52.078;8.414;2023-02-01T16:23:30;99962.66;;;16.08;56.12
56514;BME280;62152;52.078;8.414;2023-02-01T16:27:32;99973.59;;;16.08;55.88
56514;BME280;62152;52.078;8.414;2023-02-01T16:31:36;99970.06;;;16.07;55.69
56514;BME280;62152;52.078;8.414;2023-02-01T16:35:39;99977.47;;;16.07;55.75
56514;BME280;62152;52.078;8.414;2023-02-01T16:39:40;99986.03;;;16.05;55.70
56514;BME280;62152;52.078;8.414;2023-02-01T16:43:42;99997.78;;;16.06;56.02
56514;BME280;62152;52.078;8.414;2023-02-01T16:47:48;99992.66;;;16.04;55.87
56514;BME280;62152;52.078;8.414;2023-02-01T16:51:56;99993.44;;;16.05;55.98
56514;BME280;62152;52.078;8.414;2023-02-01T16:55:59;99998.13;;;16.04;55.81
56514;BME280;62152;52.078;8.414;2023-02-01T17:00:02;100004.75;;;16.03;55.78
56514;BME280;62152;52.078;8.414;2023-02-01T17:04:04;100010.22;;;16.03;55.79
56514;BME280;62152;52.078;8.414;2023-02-01T17:08:06;100000.84;;;16.04;55.32
56514;BME280;62152;52.078;8.414;2023-02-01T17:12:21;100006.31;;;16.04;55.83
56514;BME280;62152;52.078;8.414;2023-02-01T17:16:28;100016.13;;;16.05;55.47
56514;BME280;62152;52.078;8.414;2023-02-01T17:20:31;100011.78;;;16.04;55.80
56514;BME280;62152;52.078;8.414;2023-02-01T17:24:32;100022.84;;;16.08;55.84
56514;BME280;62152;52.078;8.414;2023-02-01T17:28:33;100013.72;;;16.20;56.49
56514;BME280;62152;52.078;8.414;2023-02-01T17:32:36;100029.88;;;16.44;55.26
56514;BME280;62152;52.078;8.414;2023-02-01T17:36:37;100038.84;;;17.18;54.22
56514;BME280;62152;52.078;8.414;2023-02-01T17:40:37;100028.56;;;17.58;53.54
56514;BME280;62152;52.078;8.414;2023-02-01T17:44:38;100038.63;;;17.73;53.29
56514;BME280;62152;52.078;8.414;2023-02-01T17:48:41;100036.50;;;17.86;53.89
56514;BME280;62152;52.078;8.414;2023-02-01T17:52:42;100037.75;;;17.92;53.33
56514;BME280;62152;52.078;8.414;2023-02-01T17:56:43;100044.50;;;17.98;53.40
56514;BME280;62152;52.078;8.414;2023-02-01T18:00:45;100040.28;;;18.04;54.16
56514;BME280;62152;52.078;8.414;2023-02-01T18:04:49;100054.19;;;18.15;53.94
56514;BME280;62152;52.078;8.414;2023-02-01T18:08:50;100050.78;;;18.25;53.65
56514;BME280;62152;52.078;8.414;2023-02-01T18:12:51;100049.31;;;18.31;53.93
56514;BME280;62152;52.078;8.414;2023-02-01T18:16:52;100043.38;;;18.25;53.67
56514;BME280;62152;52.078;8.414;2023-02-01T18:20:55;100044.19;;;18.29;53.81
56514;BME280;62152;52.078;8.414;2023-02-01T18:24:56;100041.81;;;18.28;53.92
56514;BME280;62152;52.078;8.414;2023-02-01T18:28:57;100036.72;;;18.26;53.52
56514;BME280;62152;52.078;8.414;2023-02-01T18:32:57;100040.72;;;18.33;53.75
56514;BME280;62152;52.078;8.414;2023-02-01T18:37:00;100044.66;;;18.35;53.63
56514;BME280;62152;52.078;8.414;2023-02-01T18:41:00;100049.38;;;18.35;53.64
56514;BME280;62152;52.078;8.414;2023-02-01T18:45:01;100050.16;;;18.35;53.80
56514;BME280;62152;52.078;8.414;2023-02-01T18:49:02;100037.50;;;18.27;54.25
56514;BME280;62152;52.078;8.414;2023-02-01T18:53:07;100053.38;;;18.14;53.97
56514;BME280;62152;52.078;8.414;2023-02-01T18:57:11;100054.84;;;18.08;54.76
56514;BME280;62152;52.078;8.414;2023-02-01T19:01:15;100064.16;;;18.00;54.65
56514;BME280;62152;52.078;8.414;2023-02-01T19:05:17;100069.53;;;17.93;54.32
56514;BME280;62152;52.078;8.414;2023-02-01T19:09:20;100072.16;;;17.86;54.75
56514;BME280;62152;52.078;8.414;2023-02-01T19:13:21;100083.44;;;17.81;54.97
56514;BME280;62152;52.078;8.414;2023-02-01T19:17:21;100088.81;;;17.73;55.22
56514;BME280;62152;52.078;8.414;2023-02-01T19:21:22;100096.13;;;17.69;55.17
56514;BME280;62152;52.078;8.414;2023-02-01T19:25:26;100096.47;;;17.64;55.13
56514;BME280;62152;52.078;8.414;2023-02-01T19:29:27;100099.13;;;17.61;55.44
56514;BME280;62152;52.078;8.414;2023-02-01T19:33:28;100099.03;;;17.76;55.48
56514;BME280;62152;52.078;8.414;2023-02-01T19:37:29;100103.00;;;17.79;55.80
56514;BME280;62152;52.078;8.414;2023-02-01T19:41:31;100094.78;;;17.79;55.97
56514;BME280;62152;52.078;8.414;2023-02-01T19:45:32;100100.63;;;17.77;56.43
56514;BME280;62152;52.078;8.414;2023-02-01T19:49:33;100095.56;;;17.80;56.48
56514;BME280;62152;52.078;8.414;2023-02-01T19:53:34;100081.84;;;17.80;56.50
56514;BME280;62152;52.078;8.414;2023-02-01T19:57:36;100086.19;;;17.81;56.71
56514;BME280;62152;52.078;8.414;2023-02-01T20:01:37;100086.59;;;17.83;57.09
56514;BME280;62152;52.078;8.414;2023-02-01T20:05:38;100075.94;;;17.77;57.16
56514;BME280;62152;52.078;8.414;2023-02-01T20:09:40;100079.47;;;17.78;56.95
56514;BME280;62152;52.078;8.414;2023-02-01T20:13:42;100096.28;;;17.76;57.52
56514;BME280;62152;52.078;8.414;2023-02-01T20:17:43;100092.41;;;17.77;56.99
56514;BME280;62152;52.078;8.414;2023-02-01T20:21:44;100099.78;;;17.73;57.59
56514;BME280;62152;52.078;8.414;2023-02-01T20:25:45;100116.66;;;17.75;57.58
56514;BME280;62152;52.078;8.414;2023-02-01T20:29:47;100101.44;;;17.78;57.75
56514;BME280;62152;52.078;8.414;2023-02-01T20:33:48;100099.81;;;17.77;57.70
56514;BME280;62152;52.078;8.414;2023-02-01T20:37:49;100116.28;;;17.77;57.59
56514;BME280;62152;52.078;8.414;2023-02-01T20:41:49;100113.19;;;17.79;57.87
56514;BME280;62152;52.078;8.414;2023-02-01T20:45:52;100114.69;;;17.76;57.77
56514;BME280;62152;52.078;8.414;2023-02-01T20:49:52;100114.69;;;17.76;57.80
56514;BME280;62152;52.078;8.414;2023-02-01T20:53:53;100117.81;;;17.74;58.13
56514;BME280;62152;52.078;8.414;2023-02-01T20:57:54;100114.16;;;17.70;57.92
56514;BME280;62152;52.078;8.414;2023-02-01T21:01:56;100114.66;;;17.72;58.00
56514;BME280;62152;52.078;8.414;2023-02-01T21:05:58;100116.91;;;17.70;58.07
56514;BME280;62152;52.078;8.414;2023-02-01T21:10:00;100123.94;;;17.68;58.10
56514;BME280;62152;52.078;8.414;2023-02-01T21:14:00;100130.94;;;17.65;58.07
56514;BME280;62152;52.078;8.414;2023-02-01T21:18:04;100136.06;;;17.67;58.23
56514;BME280;62152;52.078;8.414;2023-02-01T21:22:05;100129.41;;;17.68;58.47
56514;BME280;62152;52.078;8.414;2023-02-01T21:26:06;100136.44;;;17.65;58.62
56514;BME280;62152;52.078;8.414;2023-02-01T21:30:09;100143.13;;;17.68;58.39
56514;BME280;62152;52.078;8.414;2023-02-01T21:34:11;100156.84;;;17.68;58.42